Main page
Satellite images Climate Cyclones Lightning AirportsFAQ Languages Contact Newsletter About
Weather : Europe Africa North America South America Asia Australia-Oceania Others

guangzhou-cn, Guangzhou, Guangzhou Baiyun International Airport

59287

latitude: , longitude: China, elevation: 23-10N m


METAR: ZGGG 111130Z 13004MPS 9999 FEW030 31/24 Q1005 NOSIG